sensor_id;sensor_type;location;lat;lon;timestamp;P1;durP1;ratioP1;P2;durP2;ratioP2
15358;SDS011;7779;49.596;11.070;2022-12-04T00:01:19;6.40;;;5.00;;
15358;SDS011;7779;49.596;11.070;2022-12-04T00:03:50;6.40;;;5.37;;
15358;SDS011;7779;49.596;11.070;2022-12-04T00:06:22;6.50;;;5.07;;
15358;SDS011;7779;49.596;11.070;2022-12-04T00:08:49;6.20;;;5.30;;
15358;SDS011;7779;49.596;11.070;2022-12-04T00:11:17;6.43;;;5.40;;
15358;SDS011;7779;49.596;11.070;2022-12-04T00:13:47;6.67;;;5.13;;
15358;SDS011;7779;49.596;11.070;2022-12-04T00:16:15;6.30;;;4.90;;
15358;SDS011;7779;49.596;11.070;2022-12-04T00:18:44;6.13;;;4.87;;
15358;SDS011;7779;49.596;11.070;2022-12-04T00:21:10;6.23;;;5.20;;
15358;SDS011;7779;49.596;11.070;2022-12-04T00:23:39;7.10;;;5.73;;
15358;SDS011;7779;49.596;11.070;2022-12-04T00:26:07;6.90;;;5.30;;
15358;SDS011;7779;49.596;11.070;2022-12-04T00:28:39;6.53;;;5.40;;
15358;SDS011;7779;49.596;11.070;2022-12-04T00:31:06;7.30;;;5.47;;
15358;SDS011;7779;49.596;11.070;2022-12-04T00:33:34;6.50;;;5.43;;
15358;SDS011;7779;49.596;11.070;2022-12-04T00:36:01;6.43;;;5.27;;
15358;SDS011;7779;49.596;11.070;2022-12-04T00:38:33;6.53;;;5.27;;
15358;SDS011;7779;49.596;11.070;2022-12-04T00:41:00;6.77;;;5.47;;
15358;SDS011;7779;49.596;11.070;2022-12-04T00:43:26;6.20;;;5.20;;
15358;SDS011;7779;49.596;11.070;2022-12-04T00:45:54;7.03;;;5.53;;
15358;SDS011;7779;49.596;11.070;2022-12-04T00:48:20;6.80;;;5.20;;
15358;SDS011;7779;49.596;11.070;2022-12-04T00:50:46;6.43;;;5.40;;
15358;SDS011;7779;49.596;11.070;2022-12-04T00:53:12;6.53;;;5.50;;
15358;SDS011;7779;49.596;11.070;2022-12-04T00:55:41;6.53;;;5.10;;
15358;SDS011;7779;49.596;11.070;2022-12-04T00:58:08;6.20;;;4.83;;
15358;SDS011;7779;49.596;11.070;2022-12-04T01:00:35;7.33;;;5.53;;
15358;SDS011;7779;49.596;11.070;2022-12-04T01:03:05;5.83;;;5.10;;
15358;SDS011;7779;49.596;11.070;2022-12-04T01:05:37;6.63;;;5.33;;
15358;SDS011;7779;49.596;11.070;2022-12-04T01:08:09;6.33;;;5.23;;
15358;SDS011;7779;49.596;11.070;2022-12-04T01:10:37;6.17;;;4.93;;
15358;SDS011;7779;49.596;11.070;2022-12-04T01:13:05;6.30;;;5.60;;
15358;SDS011;7779;49.596;11.070;2022-12-04T01:15:31;6.17;;;4.80;;
15358;SDS011;7779;49.596;11.070;2022-12-04T01:17:58;6.67;;;5.87;;
15358;SDS011;7779;49.596;11.070;2022-12-04T01:20:24;6.00;;;5.07;;
15358;SDS011;7779;49.596;11.070;2022-12-04T01:22:50;6.33;;;5.13;;
15358;SDS011;7779;49.596;11.070;2022-12-04T01:25:15;6.70;;;5.17;;
15358;SDS011;7779;49.596;11.070;2022-12-04T01:27:41;7.17;;;5.40;;
15358;SDS011;7779;49.596;11.070;2022-12-04T01:30:07;7.00;;;5.30;;
15358;SDS011;7779;49.596;11.070;2022-12-04T01:32:33;6.40;;;5.33;;
15358;SDS011;7779;49.596;11.070;2022-12-04T01:34:59;6.07;;;4.90;;
15358;SDS011;7779;49.596;11.070;2022-12-04T01:37:24;5.50;;;4.77;;
15358;SDS011;7779;49.596;11.070;2022-12-04T01:39:50;7.30;;;5.20;;
15358;SDS011;7779;49.596;11.070;2022-12-04T01:42:16;5.73;;;5.10;;
15358;SDS011;7779;49.596;11.070;2022-12-04T01:44:43;6.07;;;4.90;;
15358;SDS011;7779;49.596;11.070;2022-12-04T01:47:47;6.80;;;5.37;;
15358;SDS011;7779;49.596;11.070;2022-12-04T01:50:13;5.97;;;4.77;;
15358;SDS011;7779;49.596;11.070;2022-12-04T01:52:39;6.50;;;5.10;;
15358;SDS011;7779;49.596;11.070;2022-12-04T01:55:06;5.50;;;4.70;;
15358;SDS011;7779;49.596;11.070;2022-12-04T01:57:32;5.53;;;4.40;;
15358;SDS011;7779;49.596;11.070;2022-12-04T02:00:07;6.00;;;4.60;;
15358;SDS011;7779;49.596;11.070;2022-12-04T02:02:40;5.47;;;4.63;;
15358;SDS011;7779;49.596;11.070;2022-12-04T02:05:18;6.27;;;4.67;;
15358;SDS011;7779;49.596;11.070;2022-12-04T02:07:46;5.60;;;4.63;;
15358;SDS011;7779;49.596;11.070;2022-12-04T02:10:15;6.07;;;4.67;;
15358;SDS011;7779;49.596;11.070;2022-12-04T02:13:00;4.93;;;4.43;;
15358;SDS011;7779;49.596;11.070;2022-12-04T02:15:53;8.53;;;6.63;;
15358;SDS011;7779;49.596;11.070;2022-12-04T02:22:23;25.27;;;16.60;;
15358;SDS011;7779;49.596;11.070;2022-12-04T02:25:31;11.53;;;8.33;;
15358;SDS011;7779;49.596;11.070;2022-12-04T02:28:36;9.47;;;6.13;;
15358;SDS011;7779;49.596;11.070;2022-12-04T02:31:21;7.07;;;5.60;;
15358;SDS011;7779;49.596;11.070;2022-12-04T02:34:14;7.37;;;5.43;;
15358;SDS011;7779;49.596;11.070;2022-12-04T02:37:04;6.00;;;5.37;;
15358;SDS011;7779;49.596;11.070;2022-12-04T02:39:47;6.67;;;5.23;;
15358;SDS011;7779;49.596;11.070;2022-12-04T02:42:42;6.07;;;5.33;;
15358;SDS011;7779;49.596;11.070;2022-12-04T02:45:15;7.00;;;5.17;;
15358;SDS011;7779;49.596;11.070;2022-12-04T02:47:48;4.90;;;4.10;;
15358;SDS011;7779;49.596;11.070;2022-12-04T02:50:17;5.13;;;4.33;;
15358;SDS011;7779;49.596;11.070;2022-12-04T02:52:50;5.37;;;4.27;;
15358;SDS011;7779;49.596;11.070;2022-12-04T02:55:28;5.97;;;4.60;;
15358;SDS011;7779;49.596;11.070;2022-12-04T02:58:04;4.67;;;4.13;;
15358;SDS011;7779;49.596;11.070;2022-12-04T03:00:44;5.97;;;4.50;;
15358;SDS011;7779;49.596;11.070;2022-12-04T03:03:17;4.83;;;4.33;;
15358;SDS011;7779;49.596;11.070;2022-12-04T03:05:58;5.10;;;4.40;;
15358;SDS011;7779;49.596;11.070;2022-12-04T03:08:33;5.70;;;4.53;;
15358;SDS011;7779;49.596;11.070;2022-12-04T03:11:06;4.93;;;4.10;;
15358;SDS011;7779;49.596;11.070;2022-12-04T03:13:40;5.17;;;4.23;;
15358;SDS011;7779;49.596;11.070;2022-12-04T03:16:16;5.07;;;4.50;;
15358;SDS011;7779;49.596;11.070;2022-12-04T03:18:52;4.77;;;4.03;;
15358;SDS011;7779;49.596;11.070;2022-12-04T03:21:30;5.33;;;4.20;;
15358;SDS011;7779;49.596;11.070;2022-12-04T03:24:25;5.23;;;4.27;;
15358;SDS011;7779;49.596;11.070;2022-12-04T03:26:59;5.27;;;4.50;;
15358;SDS011;7779;49.596;11.070;2022-12-04T03:29:51;5.67;;;4.20;;
15358;SDS011;7779;49.596;11.070;2022-12-04T03:32:38;4.07;;;3.60;;
15358;SDS011;7779;49.596;11.070;2022-12-04T03:35:29;5.70;;;4.60;;
15358;SDS011;7779;49.596;11.070;2022-12-04T03:38:36;5.13;;;4.27;;
15358;SDS011;7779;49.596;11.070;2022-12-04T03:41:30;4.90;;;4.40;;
15358;SDS011;7779;49.596;11.070;2022-12-04T03:58:15;5.17;;;4.60;;
15358;SDS011;7779;49.596;11.070;2022-12-04T04:00:51;4.87;;;4.13;;
15358;SDS011;7779;49.596;11.070;2022-12-04T04:03:25;4.50;;;3.67;;
15358;SDS011;7779;49.596;11.070;2022-12-04T04:05:59;5.13;;;4.23;;
15358;SDS011;7779;49.596;11.070;2022-12-04T04:08:34;4.67;;;4.17;;
15358;SDS011;7779;49.596;11.070;2022-12-04T04:14:03;4.23;;;3.70;;
15358;SDS011;7779;49.596;11.070;2022-12-04T04:16:57;4.10;;;3.70;;
15358;SDS011;7779;49.596;11.070;2022-12-04T04:19:51;5.40;;;4.10;;
15358;SDS011;7779;49.596;11.070;2022-12-04T04:22:46;4.50;;;3.67;;
15358;SDS011;7779;49.596;11.070;2022-12-04T04:25:35;5.73;;;4.23;;
15358;SDS011;7779;49.596;11.070;2022-12-04T04:28:25;5.40;;;4.17;;
15358;SDS011;7779;49.596;11.070;2022-12-04T04:31:07;4.40;;;3.53;;
15358;SDS011;7779;49.596;11.070;2022-12-04T04:33:46;4.33;;;3.60;;
15358;SDS011;7779;49.596;11.070;2022-12-04T04:39:14;4.37;;;3.93;;
15358;SDS011;7779;49.596;11.070;2022-12-04T04:42:11;5.50;;;4.43;;
15358;SDS011;7779;49.596;11.070;2022-12-04T04:47:54;6.10;;;4.67;;
15358;SDS011;7779;49.596;11.070;2022-12-04T04:50:26;4.97;;;4.20;;
15358;SDS011;7779;49.596;11.070;2022-12-04T04:52:54;4.50;;;4.10;;
15358;SDS011;7779;49.596;11.070;2022-12-04T04:55:28;4.37;;;3.97;;
15358;SDS011;7779;49.596;11.070;2022-12-04T04:58:05;5.17;;;4.23;;
15358;SDS011;7779;49.596;11.070;2022-12-04T05:00:46;4.87;;;4.10;;
15358;SDS011;7779;49.596;11.070;2022-12-04T05:03:33;5.00;;;3.80;;
15358;SDS011;7779;49.596;11.070;2022-12-04T05:05:59;4.10;;;3.70;;
15358;SDS011;7779;49.596;11.070;2022-12-04T05:08:25;5.03;;;4.10;;
15358;SDS011;7779;49.596;11.070;2022-12-04T05:10:51;4.83;;;4.00;;
15358;SDS011;7779;49.596;11.070;2022-12-04T05:13:18;4.13;;;3.73;;
15358;SDS011;7779;49.596;11.070;2022-12-04T05:15:54;4.90;;;4.23;;
15358;SDS011;7779;49.596;11.070;2022-12-04T05:18:22;5.43;;;4.30;;
15358;SDS011;7779;49.596;11.070;2022-12-04T05:20:48;3.90;;;3.50;;
15358;SDS011;7779;49.596;11.070;2022-12-04T05:23:13;4.53;;;3.83;;
15358;SDS011;7779;49.596;11.070;2022-12-04T05:25:39;4.60;;;3.87;;
15358;SDS011;7779;49.596;11.070;2022-12-04T05:28:05;5.17;;;4.40;;
15358;SDS011;7779;49.596;11.070;2022-12-04T05:30:30;5.00;;;3.67;;
15358;SDS011;7779;49.596;11.070;2022-12-04T05:32:56;4.07;;;3.43;;
15358;SDS011;7779;49.596;11.070;2022-12-04T05:35:22;4.60;;;3.87;;
15358;SDS011;7779;49.596;11.070;2022-12-04T05:37:48;4.90;;;4.20;;
15358;SDS011;7779;49.596;11.070;2022-12-04T05:40:13;4.83;;;4.07;;
15358;SDS011;7779;49.596;11.070;2022-12-04T05:42:39;4.77;;;4.13;;
15358;SDS011;7779;49.596;11.070;2022-12-04T05:45:05;5.13;;;4.03;;
15358;SDS011;7779;49.596;11.070;2022-12-04T05:47:36;4.77;;;3.67;;
15358;SDS011;7779;49.596;11.070;2022-12-04T05:50:11;4.47;;;4.07;;
15358;SDS011;7779;49.596;11.070;2022-12-04T05:52:38;5.00;;;4.20;;
15358;SDS011;7779;49.596;11.070;2022-12-04T05:55:05;4.93;;;3.70;;
15358;SDS011;7779;49.596;11.070;2022-12-04T05:57:31;5.00;;;4.17;;
15358;SDS011;7779;49.596;11.070;2022-12-04T05:59:57;4.47;;;3.83;;
15358;SDS011;7779;49.596;11.070;2022-12-04T06:02:22;7.10;;;5.30;;
15358;SDS011;7779;49.596;11.070;2022-12-04T06:04:48;11.00;;;7.03;;
15358;SDS011;7779;49.596;11.070;2022-12-04T06:07:14;7.40;;;4.57;;
15358;SDS011;7779;49.596;11.070;2022-12-04T06:09:39;5.93;;;5.00;;
15358;SDS011;7779;49.596;11.070;2022-12-04T06:12:05;6.17;;;5.00;;
15358;SDS011;7779;49.596;11.070;2022-12-04T06:14:32;5.10;;;4.53;;
15358;SDS011;7779;49.596;11.070;2022-12-04T06:16:58;5.40;;;4.50;;
15358;SDS011;7779;49.596;11.070;2022-12-04T06:19:24;5.33;;;4.20;;
15358;SDS011;7779;49.596;11.070;2022-12-04T06:21:50;5.00;;;4.00;;
15358;SDS011;7779;49.596;11.070;2022-12-04T06:24:18;5.50;;;4.10;;
15358;SDS011;7779;49.596;11.070;2022-12-04T06:26:47;5.43;;;4.10;;
15358;SDS011;7779;49.596;11.070;2022-12-04T06:29:15;5.50;;;4.23;;
15358;SDS011;7779;49.596;11.070;2022-12-04T06:31:41;5.17;;;4.57;;
15358;SDS011;7779;49.596;11.070;2022-12-04T06:34:07;4.97;;;4.43;;
15358;SDS011;7779;49.596;11.070;2022-12-04T06:36:34;4.40;;;4.00;;
15358;SDS011;7779;49.596;11.070;2022-12-04T06:39:01;4.70;;;3.80;;
15358;SDS011;7779;49.596;11.070;2022-12-04T06:41:27;4.50;;;3.63;;
15358;SDS011;7779;49.596;11.070;2022-12-04T06:43:54;4.60;;;3.83;;
15358;SDS011;7779;49.596;11.070;2022-12-04T06:46:21;5.07;;;3.80;;
15358;SDS011;7779;49.596;11.070;2022-12-04T06:48:50;4.80;;;4.00;;
15358;SDS011;7779;49.596;11.070;2022-12-04T06:51:21;4.67;;;3.87;;
15358;SDS011;7779;49.596;11.070;2022-12-04T06:53:51;4.20;;;3.77;;
15358;SDS011;7779;49.596;11.070;2022-12-04T06:56:19;4.50;;;4.10;;
15358;SDS011;7779;49.596;11.070;2022-12-04T06:58:48;4.27;;;3.87;;
15358;SDS011;7779;49.596;11.070;2022-12-04T07:01:19;4.97;;;3.93;;
15358;SDS011;7779;49.596;11.070;2022-12-04T07:03:51;4.00;;;3.50;;
15358;SDS011;7779;49.596;11.070;2022-12-04T07:06:18;4.97;;;4.17;;
15358;SDS011;7779;49.596;11.070;2022-12-04T07:08:51;5.63;;;4.30;;
15358;SDS011;7779;49.596;11.070;2022-12-04T07:11:23;4.67;;;4.17;;
15358;SDS011;7779;49.596;11.070;2022-12-04T07:13:50;5.47;;;4.67;;
15358;SDS011;7779;49.596;11.070;2022-12-04T07:16:16;6.27;;;4.83;;
15358;SDS011;7779;49.596;11.070;2022-12-04T07:18:45;6.20;;;4.60;;
15358;SDS011;7779;49.596;11.070;2022-12-04T07:21:15;5.27;;;4.27;;
15358;SDS011;7779;49.596;11.070;2022-12-04T07:23:43;5.33;;;4.10;;
15358;SDS011;7779;49.596;11.070;2022-12-04T07:26:13;4.17;;;3.77;;
15358;SDS011;7779;49.596;11.070;2022-12-04T07:28:39;5.07;;;3.97;;
15358;SDS011;7779;49.596;11.070;2022-12-04T07:31:06;5.23;;;4.20;;
15358;SDS011;7779;49.596;11.070;2022-12-04T07:33:35;5.40;;;4.20;;
15358;SDS011;7779;49.596;11.070;2022-12-04T07:36:03;6.37;;;4.03;;
15358;SDS011;7779;49.596;11.070;2022-12-04T07:38:31;5.43;;;4.50;;
15358;SDS011;7779;49.596;11.070;2022-12-04T07:40:59;5.07;;;4.40;;
15358;SDS011;7779;49.596;11.070;2022-12-04T07:43:27;4.77;;;3.73;;
15358;SDS011;7779;49.596;11.070;2022-12-04T07:45:55;5.37;;;3.73;;
15358;SDS011;7779;49.596;11.070;2022-12-04T07:48:21;4.30;;;3.90;;
15358;SDS011;7779;49.596;11.070;2022-12-04T07:50:47;6.53;;;5.33;;
15358;SDS011;7779;49.596;11.070;2022-12-04T07:53:13;6.73;;;5.70;;
15358;SDS011;7779;49.596;11.070;2022-12-04T07:55:38;6.60;;;5.13;;
15358;SDS011;7779;49.596;11.070;2022-12-04T07:58:04;5.80;;;5.10;;
15358;SDS011;7779;49.596;11.070;2022-12-04T08:00:30;6.17;;;4.93;;
15358;SDS011;7779;49.596;11.070;2022-12-04T08:02:56;4.67;;;4.27;;
15358;SDS011;7779;49.596;11.070;2022-12-04T08:05:22;5.60;;;4.53;;
15358;SDS011;7779;49.596;11.070;2022-12-04T08:07:48;5.30;;;4.43;;
15358;SDS011;7779;49.596;11.070;2022-12-04T08:12:40;5.03;;;4.53;;
15358;SDS011;7779;49.596;11.070;2022-12-04T08:15:06;4.43;;;3.90;;
15358;SDS011;7779;49.596;11.070;2022-12-04T08:17:32;4.90;;;4.13;;
15358;SDS011;7779;49.596;11.070;2022-12-04T08:19:58;5.03;;;4.53;;
15358;SDS011;7779;49.596;11.070;2022-12-04T08:22:24;4.07;;;3.67;;
15358;SDS011;7779;49.596;11.070;2022-12-04T08:24:50;4.13;;;3.67;;
15358;SDS011;7779;49.596;11.070;2022-12-04T08:27:15;4.23;;;3.83;;
15358;SDS011;7779;49.596;11.070;2022-12-04T08:29:41;4.17;;;3.67;;
15358;SDS011;7779;49.596;11.070;2022-12-04T08:32:07;4.83;;;4.33;;
15358;SDS011;7779;49.596;11.070;2022-12-04T08:34:33;4.10;;;3.70;;
15358;SDS011;7779;49.596;11.070;2022-12-04T08:36:59;4.50;;;3.70;;
15358;SDS011;7779;49.596;11.070;2022-12-04T08:39:25;4.67;;;4.17;;
15358;SDS011;7779;49.596;11.070;2022-12-04T08:41:50;3.87;;;3.47;;
15358;SDS011;7779;49.596;11.070;2022-12-04T08:44:17;4.13;;;3.63;;
15358;SDS011;7779;49.596;11.070;2022-12-04T08:46:42;4.90;;;3.43;;
15358;SDS011;7779;49.596;11.070;2022-12-04T08:49:08;4.17;;;3.73;;
15358;SDS011;7779;49.596;11.070;2022-12-04T08:51:34;4.23;;;3.33;;
15358;SDS011;7779;49.596;11.070;2022-12-04T08:54:04;4.20;;;3.33;;
15358;SDS011;7779;49.596;11.070;2022-12-04T08:56:33;4.40;;;4.00;;
15358;SDS011;7779;49.596;11.070;2022-12-04T08:59:01;5.33;;;3.70;;
15358;SDS011;7779;49.596;11.070;2022-12-04T09:01:27;3.70;;;3.40;;
15358;SDS011;7779;49.596;11.070;2022-12-04T09:03:54;5.20;;;3.93;;
15358;SDS011;7779;49.596;11.070;2022-12-04T09:06:20;4.47;;;3.60;;
15358;SDS011;7779;49.596;11.070;2022-12-04T09:08:47;3.87;;;3.47;;
15358;SDS011;7779;49.596;11.070;2022-12-04T09:11:18;4.30;;;3.90;;
15358;SDS011;7779;49.596;11.070;2022-12-04T09:13:46;8.07;;;4.13;;
15358;SDS011;7779;49.596;11.070;2022-12-04T09:16:17;4.50;;;3.80;;
15358;SDS011;7779;49.596;11.070;2022-12-04T09:18:46;5.13;;;4.13;;
15358;SDS011;7779;49.596;11.070;2022-12-04T09:21:13;4.63;;;4.13;;
15358;SDS011;7779;49.596;11.070;2022-12-04T09:23:42;4.20;;;3.50;;
15358;SDS011;7779;49.596;11.070;2022-12-04T09:26:22;4.63;;;3.83;;
15358;SDS011;7779;49.596;11.070;2022-12-04T09:28:52;4.07;;;3.63;;
15358;SDS011;7779;49.596;11.070;2022-12-04T09:31:20;4.93;;;3.23;;
15358;SDS011;7779;49.596;11.070;2022-12-04T09:33:47;4.03;;;3.63;;
15358;SDS011;7779;49.596;11.070;2022-12-04T09:36:13;4.27;;;3.50;;
15358;SDS011;7779;49.596;11.070;2022-12-04T09:38:42;4.73;;;3.77;;
15358;SDS011;7779;49.596;11.070;2022-12-04T09:44:22;4.07;;;3.40;;
15358;SDS011;7779;49.596;11.070;2022-12-04T09:47:03;3.47;;;3.17;;
15358;SDS011;7779;49.596;11.070;2022-12-04T09:49:52;3.57;;;3.17;;
15358;SDS011;7779;49.596;11.070;2022-12-04T09:52:39;4.73;;;3.73;;
15358;SDS011;7779;49.596;11.070;2022-12-04T09:56:03;4.03;;;3.47;;
15358;SDS011;7779;49.596;11.070;2022-12-04T09:58:22;4.10;;;3.67;;
15358;SDS011;7779;49.596;11.070;2022-12-04T10:01:04;4.47;;;3.60;;
15358;SDS011;7779;49.596;11.070;2022-12-04T10:03:30;4.33;;;3.40;;
15358;SDS011;7779;49.596;11.070;2022-12-04T10:08:44;4.30;;;3.67;;
15358;SDS011;7779;49.596;11.070;2022-12-04T10:26:01;4.03;;;3.43;;
15358;SDS011;7779;49.596;11.070;2022-12-04T10:28:36;4.23;;;3.83;;
15358;SDS011;7779;49.596;11.070;2022-12-04T10:31:10;9.33;;;7.03;;
15358;SDS011;7779;49.596;11.070;2022-12-04T10:33:40;5.80;;;4.80;;
15358;SDS011;7779;49.596;11.070;2022-12-04T10:36:16;5.43;;;4.43;;
15358;SDS011;7779;49.596;11.070;2022-12-04T10:38:51;5.03;;;4.40;;
15358;SDS011;7779;49.596;11.070;2022-12-04T10:44:13;4.23;;;3.83;;
15358;SDS011;7779;49.596;11.070;2022-12-04T10:46:41;4.20;;;3.50;;
15358;SDS011;7779;49.596;11.070;2022-12-04T10:49:17;4.03;;;3.63;;
15358;SDS011;7779;49.596;11.070;2022-12-04T10:51:53;6.33;;;4.73;;
15358;SDS011;7779;49.596;11.070;2022-12-04T10:54:22;4.50;;;3.70;;
15358;SDS011;7779;49.596;11.070;2022-12-04T10:57:09;4.07;;;3.37;;
15358;SDS011;7779;49.596;11.070;2022-12-04T10:59:50;4.27;;;3.50;;
15358;SDS011;7779;49.596;11.070;2022-12-04T11:04:56;3.43;;;3.03;;
15358;SDS011;7779;49.596;11.070;2022-12-04T11:07:27;3.73;;;3.33;;
15358;SDS011;7779;49.596;11.070;2022-12-04T11:10:00;4.27;;;3.70;;
15358;SDS011;7779;49.596;11.070;2022-12-04T11:12:30;3.87;;;3.47;;
15358;SDS011;7779;49.596;11.070;2022-12-04T11:15:03;3.77;;;3.37;;
15358;SDS011;7779;49.596;11.070;2022-12-04T11:17:39;3.73;;;3.37;;
15358;SDS011;7779;49.596;11.070;2022-12-04T11:20:06;3.27;;;2.97;;
15358;SDS011;7779;49.596;11.070;2022-12-04T11:22:50;3.90;;;3.50;;
15358;SDS011;7779;49.596;11.070;2022-12-04T11:25:22;3.60;;;3.20;;
15358;SDS011;7779;49.596;11.070;2022-12-04T11:27:58;4.03;;;3.50;;
15358;SDS011;7779;49.596;11.070;2022-12-04T11:30:36;3.27;;;2.97;;
15358;SDS011;7779;49.596;11.070;2022-12-04T11:33:03;4.47;;;3.60;;
15358;SDS011;7779;49.596;11.070;2022-12-04T11:35:42;3.87;;;3.30;;
15358;SDS011;7779;49.596;11.070;2022-12-04T11:38:17;4.37;;;3.47;;
15358;SDS011;7779;49.596;11.070;2022-12-04T11:40:48;3.57;;;3.27;;
15358;SDS011;7779;49.596;11.070;2022-12-04T11:43:18;4.40;;;3.83;;
15358;SDS011;7779;49.596;11.070;2022-12-04T11:45:59;4.43;;;3.60;;
15358;SDS011;7779;49.596;11.070;2022-12-04T11:48:40;4.07;;;3.20;;
15358;SDS011;7779;49.596;11.070;2022-12-04T11:51:17;4.23;;;3.40;;
15358;SDS011;7779;49.596;11.070;2022-12-04T11:54:12;4.10;;;3.40;;
15358;SDS011;7779;49.596;11.070;2022-12-04T11:57:36;3.53;;;3.10;;
15358;SDS011;7779;49.596;11.070;2022-12-04T12:11:44;3.90;;;3.30;;
15358;SDS011;7779;49.596;11.070;2022-12-04T12:19:59;4.27;;;3.17;;
15358;SDS011;7779;49.596;11.070;2022-12-04T12:34:30;4.30;;;3.50;;
15358;SDS011;7779;49.596;11.070;2022-12-04T12:37:49;4.33;;;3.50;;
15358;SDS011;7779;49.596;11.070;2022-12-04T12:42:54;4.77;;;4.17;;
15358;SDS011;7779;49.596;11.070;2022-12-04T12:45:43;4.70;;;3.80;;
15358;SDS011;7779;49.596;11.070;2022-12-04T12:48:15;4.70;;;3.83;;
15358;SDS011;7779;49.596;11.070;2022-12-04T12:51:05;4.10;;;3.57;;
15358;SDS011;7779;49.596;11.070;2022-12-04T12:54:00;3.93;;;3.53;;
15358;SDS011;7779;49.596;11.070;2022-12-04T12:56:55;3.63;;;3.33;;
15358;SDS011;7779;49.596;11.070;2022-12-04T12:59:29;4.40;;;3.43;;
15358;SDS011;7779;49.596;11.070;2022-12-04T13:02:10;4.20;;;3.80;;
15358;SDS011;7779;49.596;11.070;2022-12-04T13:04:49;3.80;;;3.47;;
15358;SDS011;7779;49.596;11.070;2022-12-04T13:10:14;4.00;;;3.57;;
15358;SDS011;7779;49.596;11.070;2022-12-04T13:12:50;4.40;;;3.90;;
15358;SDS011;7779;49.596;11.070;2022-12-04T13:15:34;4.70;;;4.00;;
15358;SDS011;7779;49.596;11.070;2022-12-04T13:18:09;5.03;;;4.20;;
15358;SDS011;7779;49.596;11.070;2022-12-04T13:21:04;4.40;;;3.80;;
15358;SDS011;7779;49.596;11.070;2022-12-04T13:26:48;4.33;;;3.93;;
15358;SDS011;7779;49.596;11.070;2022-12-04T13:30:08;5.67;;;4.53;;
15358;SDS011;7779;49.596;11.070;2022-12-04T13:41:22;5.10;;;4.00;;
15358;SDS011;7779;49.596;11.070;2022-12-04T13:43:50;4.40;;;3.97;;
15358;SDS011;7779;49.596;11.070;2022-12-04T13:51:42;5.47;;;4.60;;
15358;SDS011;7779;49.596;11.070;2022-12-04T13:56:36;6.37;;;4.70;;
15358;SDS011;7779;49.596;11.070;2022-12-04T13:59:05;5.83;;;5.17;;
15358;SDS011;7779;49.596;11.070;2022-12-04T14:02:00;5.70;;;5.07;;
15358;SDS011;7779;49.596;11.070;2022-12-04T14:05:11;6.83;;;5.20;;
15358;SDS011;7779;49.596;11.070;2022-12-04T14:07:39;5.90;;;4.83;;
15358;SDS011;7779;49.596;11.070;2022-12-04T14:10:25;5.03;;;4.53;;
15358;SDS011;7779;49.596;11.070;2022-12-04T14:13:13;7.13;;;4.87;;
15358;SDS011;7779;49.596;11.070;2022-12-04T14:15:48;6.33;;;4.87;;
15358;SDS011;7779;49.596;11.070;2022-12-04T14:18:30;5.87;;;5.17;;
15358;SDS011;7779;49.596;11.070;2022-12-04T14:20:59;5.70;;;5.03;;
15358;SDS011;7779;49.596;11.070;2022-12-04T14:23:33;6.67;;;4.60;;
15358;SDS011;7779;49.596;11.070;2022-12-04T14:26:03;5.33;;;4.60;;
15358;SDS011;7779;49.596;11.070;2022-12-04T14:33:58;9.00;;;8.10;;
15358;SDS011;7779;49.596;11.070;2022-12-04T14:36:44;7.73;;;6.93;;
15358;SDS011;7779;49.596;11.070;2022-12-04T14:39:26;6.90;;;5.70;;
15358;SDS011;7779;49.596;11.070;2022-12-04T14:42:15;7.10;;;5.90;;
15358;SDS011;7779;49.596;11.070;2022-12-04T14:44:51;5.80;;;5.20;;
15358;SDS011;7779;49.596;11.070;2022-12-04T14:58:41;6.53;;;5.43;;
15358;SDS011;7779;49.596;11.070;2022-12-04T15:01:18;9.30;;;5.73;;
15358;SDS011;7779;49.596;11.070;2022-12-04T15:04:17;7.03;;;5.77;;
15358;SDS011;7779;49.596;11.070;2022-12-04T15:06:54;6.03;;;4.90;;
15358;SDS011;7779;49.596;11.070;2022-12-04T15:09:23;9.13;;;6.60;;
15358;SDS011;7779;49.596;11.070;2022-12-04T15:14:58;12.33;;;7.83;;
15358;SDS011;7779;49.596;11.070;2022-12-04T15:17:39;10.63;;;7.33;;
15358;SDS011;7779;49.596;11.070;2022-12-04T15:20:09;7.60;;;6.23;;
15358;SDS011;7779;49.596;11.070;2022-12-04T15:22:40;6.30;;;5.33;;
15358;SDS011;7779;49.596;11.070;2022-12-04T15:25:12;7.03;;;5.43;;
15358;SDS011;7779;49.596;11.070;2022-12-04T15:27:46;8.27;;;6.50;;
15358;SDS011;7779;49.596;11.070;2022-12-04T15:30:18;8.60;;;6.03;;
15358;SDS011;7779;49.596;11.070;2022-12-04T15:32:48;6.43;;;5.70;;
15358;SDS011;7779;49.596;11.070;2022-12-04T15:35:24;9.00;;;6.00;;
15358;SDS011;7779;49.596;11.070;2022-12-04T15:37:55;7.87;;;6.27;;
15358;SDS011;7779;49.596;11.070;2022-12-04T15:40:26;8.17;;;6.40;;
15358;SDS011;7779;49.596;11.070;2022-12-04T15:42:54;8.87;;;6.77;;
15358;SDS011;7779;49.596;11.070;2022-12-04T15:45:39;6.87;;;5.97;;
15358;SDS011;7779;49.596;11.070;2022-12-04T15:48:07;6.80;;;5.97;;
15358;SDS011;7779;49.596;11.070;2022-12-04T15:50:34;6.93;;;5.47;;
15358;SDS011;7779;49.596;11.070;2022-12-04T15:55:52;7.00;;;5.57;;
15358;SDS011;7779;49.596;11.070;2022-12-04T15:58:26;7.10;;;6.00;;
15358;SDS011;7779;49.596;11.070;2022-12-04T16:00:59;8.97;;;7.27;;
15358;SDS011;7779;49.596;11.070;2022-12-04T16:03:30;8.83;;;6.97;;
15358;SDS011;7779;49.596;11.070;2022-12-04T16:08:44;8.83;;;6.57;;
15358;SDS011;7779;49.596;11.070;2022-12-04T16:13:45;8.23;;;6.20;;
15358;SDS011;7779;49.596;11.070;2022-12-04T16:16:15;5.80;;;5.13;;
15358;SDS011;7779;49.596;11.070;2022-12-04T16:18:46;7.07;;;6.07;;
15358;SDS011;7779;49.596;11.070;2022-12-04T16:21:14;6.90;;;5.70;;
15358;SDS011;7779;49.596;11.070;2022-12-04T16:23:43;11.90;;;5.80;;
15358;SDS011;7779;49.596;11.070;2022-12-04T16:26:13;9.80;;;6.90;;
15358;SDS011;7779;49.596;11.070;2022-12-04T16:28:42;12.00;;;8.90;;
15358;SDS011;7779;49.596;11.070;2022-12-04T16:31:09;10.43;;;8.23;;
15358;SDS011;7779;49.596;11.070;2022-12-04T16:33:37;7.27;;;5.80;;
15358;SDS011;7779;49.596;11.070;2022-12-04T16:36:04;7.60;;;6.17;;
15358;SDS011;7779;49.596;11.070;2022-12-04T16:38:30;7.13;;;5.90;;
15358;SDS011;7779;49.596;11.070;2022-12-04T16:40:55;7.63;;;6.80;;
15358;SDS011;7779;49.596;11.070;2022-12-04T16:43:21;8.37;;;6.13;;
15358;SDS011;7779;49.596;11.070;2022-12-04T16:45:50;7.40;;;6.03;;
15358;SDS011;7779;49.596;11.070;2022-12-04T16:48:18;7.50;;;6.53;;
15358;SDS011;7779;49.596;11.070;2022-12-04T16:50:45;7.97;;;6.17;;
15358;SDS011;7779;49.596;11.070;2022-12-04T16:53:17;6.90;;;6.13;;
15358;SDS011;7779;49.596;11.070;2022-12-04T16:55:47;6.97;;;6.27;;
15358;SDS011;7779;49.596;11.070;2022-12-04T16:58:15;7.40;;;6.03;;
15358;SDS011;7779;49.596;11.070;2022-12-04T17:00:43;8.33;;;6.73;;
15358;SDS011;7779;49.596;11.070;2022-12-04T17:03:28;7.90;;;6.30;;
15358;SDS011;7779;49.596;11.070;2022-12-04T17:05:57;9.43;;;6.63;;
15358;SDS011;7779;49.596;11.070;2022-12-04T17:08:25;7.13;;;5.93;;
15358;SDS011;7779;49.596;11.070;2022-12-04T17:10:52;7.60;;;6.37;;
15358;SDS011;7779;49.596;11.070;2022-12-04T17:13:19;7.60;;;6.60;;
15358;SDS011;7779;49.596;11.070;2022-12-04T17:15:45;7.27;;;6.53;;
15358;SDS011;7779;49.596;11.070;2022-12-04T17:18:11;7.17;;;6.03;;
15358;SDS011;7779;49.596;11.070;2022-12-04T17:20:41;7.23;;;6.40;;
15358;SDS011;7779;49.596;11.070;2022-12-04T17:23:08;7.70;;;6.70;;
15358;SDS011;7779;49.596;11.070;2022-12-04T17:25:36;7.30;;;6.20;;
15358;SDS011;7779;49.596;11.070;2022-12-04T17:28:03;7.17;;;6.27;;
15358;SDS011;7779;49.596;11.070;2022-12-04T17:30:29;7.90;;;6.67;;
15358;SDS011;7779;49.596;11.070;2022-12-04T17:32:55;7.30;;;6.13;;
15358;SDS011;7779;49.596;11.070;2022-12-04T17:35:20;8.50;;;6.47;;
15358;SDS011;7779;49.596;11.070;2022-12-04T17:37:46;7.80;;;6.23;;
15358;SDS011;7779;49.596;11.070;2022-12-04T17:40:12;8.13;;;6.63;;